Time;durP1;ratioP1;P1;durP2;ratioP2;P2;SDS_P1;SDS_P2;PMS_P1;PMS_P2;Temp;Humidity;BMP_temperature;BMP_pressure;BME280_temperature;BME280_humidity;BME280_pressure;Samples;Min_cycle;Max_cycle;Signal;HPM_P1;HPM_P2
2023/08/30 00:02:00;;;;;;;3.50;3.13;;;20.10;83.10;;;;;;5073480;28;20229;-72
2023/08/30 00:04:27;;;;;;;3.23;2.93;;;20.00;83.90;;;;;;5082197;28;20325;-72
2023/08/30 00:06:54;;;;;;;3.50;3.20;;;20.00;83.20;;;;;;5073532;28;20217;-71
2023/08/30 00:09:21;;;;;;;3.13;2.83;;;20.00;83.20;;;;;;5092903;28;20201;-71
2023/08/30 00:11:48;;;;;;;3.27;3.00;;;20.00;83.20;;;;;;5081356;28;20206;-71
2023/08/30 00:14:16;;;;;;;3.43;3.00;;;20.00;83.20;;;;;;5096838;28;20228;-70
2023/08/30 00:16:42;;;;;;;3.50;2.90;;;20.00;83.20;;;;;;5098447;28;20185;-72
2023/08/30 00:19:09;;;;;;;3.63;3.07;;;20.00;83.20;;;;;;5080651;28;20671;-72
2023/08/30 00:21:36;;;;;;;3.17;2.87;;;20.00;83.20;;;;;;5082171;28;20201;-73
2023/08/30 00:24:04;;;;;;;4.13;2.90;;;20.00;83.20;;;;;;5085647;28;20224;-72
2023/08/30 00:26:30;;;;;;;3.33;3.03;;;20.00;83.20;;;;;;5072564;28;20232;-72
2023/08/30 00:28:57;;;;;;;2.63;2.43;;;20.00;83.20;;;;;;5082018;28;20197;-72
2023/08/30 00:31:25;;;;;;;3.40;3.10;;;20.00;83.20;;;;;;5089622;28;20254;-72
2023/08/30 00:33:52;;;;;;;3.60;3.30;;;20.00;83.20;;;;;;5086240;28;20287;-72
2023/08/30 00:36:19;;;;;;;3.13;2.83;;;20.00;83.30;;;;;;5077768;28;20309;-72
2023/08/30 00:38:47;;;;;;;3.20;2.90;;;19.90;83.80;;;;;;5074755;28;20227;-72
2023/08/30 00:41:14;;;;;;;3.30;3.00;;;19.90;83.50;;;;;;5072411;28;20658;-72
2023/08/30 00:43:41;;;;;;;3.47;3.07;;;19.80;83.60;;;;;;5076377;28;20215;-72
2023/08/30 00:46:07;;;;;;;4.37;3.03;;;19.80;83.80;;;;;;5072396;28;20711;-71
2023/08/30 00:48:36;;;;;;;3.50;3.10;;;19.80;83.90;;;;;;5076364;28;20220;-71
2023/08/30 00:51:03;;;;;;;3.10;2.90;;;19.80;83.70;;;;;;5083419;28;20197;-71
2023/08/30 00:53:29;;;;;;;3.00;2.70;;;19.90;83.70;;;;;;5083157;28;20201;-71
2023/08/30 00:55:56;;;;;;;3.90;2.70;;;19.90;83.70;;;;;;5078102;28;20308;-72
2023/08/30 00:58:26;;;;;;;3.70;3.13;;;19.90;83.70;;;;;;5091514;28;20272;-72
2023/08/30 01:00:54;;;;;;;2.73;2.53;;;19.90;83.60;;;;;;5085623;28;20209;-72
2023/08/30 01:03:23;;;;;;;3.70;3.40;;;19.90;83.50;;;;;;5073809;28;20232;-72
2023/08/30 01:05:51;;;;;;;3.77;3.23;;;19.90;83.60;;;;;;5071498;28;20236;-72
2023/08/30 01:08:18;;;;;;;4.10;3.17;;;19.90;83.60;;;;;;5074249;28;20200;-72
2023/08/30 01:10:53;;;;;;;3.37;3.07;;;19.80;83.40;;;;;;5084624;28;20658;-72
2023/08/30 01:13:21;;;;;;;3.10;2.90;;;19.80;84.40;;;;;;5091557;28;20284;-72
2023/08/30 01:15:49;;;;;;;3.33;3.00;;;19.80;83.70;;;;;;5091719;28;20213;-72
2023/08/30 01:18:19;;;;;;;3.17;2.93;;;19.70;83.60;;;;;;5092031;28;20215;-72
2023/08/30 01:20:47;;;;;;;3.77;3.30;;;19.80;83.90;;;;;;5085035;28;20217;-72
2023/08/30 01:23:25;;;;;;;3.83;2.70;;;19.70;83.90;;;;;;5091419;28;20294;-72
2023/08/30 01:26:03;;;;;;;2.93;2.63;;;19.70;84.00;;;;;;5091879;28;20219;-72
2023/08/30 01:28:34;;;;;;;4.23;3.13;;;19.70;84.10;;;;;;5087548;28;20689;-72
2023/08/30 01:31:01;;;;;;;3.83;2.80;;;19.70;84.00;;;;;;5074827;28;20596;-72
2023/08/30 01:33:28;;;;;;;4.43;2.90;;;19.70;84.10;;;;;;5073747;28;20197;-72
2023/08/30 01:35:58;;;;;;;4.00;3.63;;;19.70;84.10;;;;;;5090538;28;20266;-71
2023/08/30 01:38:27;;;;;;;3.80;2.87;;;19.70;84.10;;;;;;5075019;28;20239;-72
2023/08/30 01:40:55;;;;;;;5.07;3.60;;;19.70;84.10;;;;;;5078865;28;20200;-72
2023/08/30 01:43:23;;;;;;;3.40;3.10;;;19.60;84.10;;;;;;5077047;28;20197;-72
2023/08/30 01:45:52;;;;;;;3.80;3.10;;;19.50;84.40;;;;;;5075146;28;20232;-72
2023/08/30 01:48:19;;;;;;;2.97;2.67;;;19.50;84.60;;;;;;5081133;28;20282;-72
2023/08/30 01:50:47;;;;;;;6.27;3.40;;;19.50;84.70;;;;;;5028859;28;20280;-71
2023/08/30 01:53:15;;;;;;;3.20;2.90;;;19.50;84.60;;;;;;5080784;28;20227;-72
2023/08/30 01:55:43;;;;;;;3.73;3.30;;;19.50;84.60;;;;;;5077628;28;20208;-72
2023/08/30 01:58:10;;;;;;;3.40;2.80;;;19.50;84.50;;;;;;5086854;28;20667;-72
2023/08/30 02:00:37;;;;;;;3.23;2.93;;;19.60;84.60;;;;;;5081451;28;20229;-72
2023/08/30 02:03:10;;;;;;;3.67;3.30;;;19.60;84.50;;;;;;5071523;28;20661;-72
2023/08/30 02:05:44;;;;;;;3.93;3.10;;;19.50;84.60;;;;;;5071858;28;20609;-71
2023/08/30 02:08:16;;;;;;;5.00;3.30;;;19.50;84.50;;;;;;5071827;28;20189;-71
2023/08/30 02:10:49;;;;;;;3.47;3.17;;;19.60;84.60;;;;;;5088915;28;20193;-71
2023/08/30 02:13:18;;;;;;;3.93;3.50;;;19.60;84.70;;;;;;5082954;28;20527;-72
2023/08/30 02:15:46;;;;;;;4.90;3.50;;;19.60;84.70;;;;;;5082392;28;20550;-71
2023/08/30 02:18:15;;;;;;;4.20;3.20;;;19.60;84.80;;;;;;5077303;28;20219;-71
2023/08/30 02:20:42;;;;;;;4.10;3.47;;;19.50;84.80;;;;;;5085145;28;20206;-71
2023/08/30 02:23:11;;;;;;;3.23;2.93;;;19.60;85.00;;;;;;5088607;28;20224;-72
2023/08/30 02:25:37;;;;;;;3.63;3.33;;;19.60;85.00;;;;;;5090348;28;20223;-72
2023/08/30 02:28:05;;;;;;;3.83;3.23;;;19.60;85.70;;;;;;5077521;28;20765;-71
2023/08/30 02:30:32;;;;;;;4.23;3.50;;;19.60;85.10;;;;;;5081340;28;20197;-71
2023/08/30 02:32:58;;;;;;;4.10;3.67;;;19.60;85.10;;;;;;5071464;28;20295;-71
2023/08/30 02:35:27;;;;;;;5.37;3.83;;;19.60;85.20;;;;;;5071542;28;20197;-72
2023/08/30 02:37:53;;;;;;;4.23;3.67;;;19.60;85.30;;;;;;5084520;28;20210;-71
2023/08/30 02:40:20;;;;;;;3.97;3.67;;;19.50;85.30;;;;;;5083532;28;20200;-71
2023/08/30 02:42:47;;;;;;;4.63;3.63;;;19.60;86.20;;;;;;5077074;28;20213;-71
2023/08/30 02:45:14;;;;;;;3.87;3.57;;;19.60;85.50;;;;;;5070514;28;20280;-71
2023/08/30 02:47:41;;;;;;;4.30;3.43;;;19.60;85.30;;;;;;5077512;28;20220;-72
2023/08/30 02:50:08;;;;;;;4.17;3.53;;;19.50;85.30;;;;;;5075265;28;20303;-72
2023/08/30 02:52:36;;;;;;;3.73;3.43;;;19.60;85.30;;;;;;5059436;28;20666;-71
2023/08/30 02:55:03;;;;;;;3.37;3.07;;;19.60;85.30;;;;;;5081497;28;20204;-72
2023/08/30 02:57:30;;;;;;;4.00;3.60;;;19.70;85.30;;;;;;5077698;28;20196;-72
2023/08/30 02:59:57;;;;;;;3.60;3.30;;;19.60;85.10;;;;;;5078629;28;20390;-72
2023/08/30 03:02:23;;;;;;;3.83;3.53;;;19.70;85.20;;;;;;5089163;28;20207;-71
2023/08/30 03:04:50;;;;;;;3.80;3.50;;;19.60;85.20;;;;;;5054464;28;20565;-72
2023/08/30 03:07:17;;;;;;;3.20;3.00;;;19.60;85.10;;;;;;5056040;28;20464;-71
2023/08/30 03:09:45;;;;;;;4.20;3.80;;;19.60;85.00;;;;;;5084645;28;20211;-72
2023/08/30 03:12:12;;;;;;;3.90;3.50;;;19.70;85.10;;;;;;5076796;28;20216;-72
2023/08/30 03:14:39;;;;;;;3.70;3.40;;;19.70;85.10;;;;;;5083653;28;20287;-72
2023/08/30 03:17:05;;;;;;;3.80;3.43;;;19.70;85.00;;;;;;5105579;28;20212;-71
2023/08/30 03:19:32;;;;;;;3.50;3.20;;;19.70;84.90;;;;;;5093631;28;20254;-72
2023/08/30 03:22:00;;;;;;;3.10;2.90;;;19.70;84.90;;;;;;5077555;28;20202;-72
2023/08/30 03:24:27;;;;;;;4.03;3.67;;;19.70;84.90;;;;;;5083986;28;20224;-72
2023/08/30 03:26:55;;;;;;;3.27;2.97;;;19.70;84.90;;;;;;5093902;28;20521;-72
2023/08/30 03:29:22;;;;;;;3.50;3.20;;;19.70;85.00;;;;;;5084268;28;20200;-71
2023/08/30 03:31:49;;;;;;;3.70;3.40;;;19.70;84.90;;;;;;5079717;28;20296;-71
2023/08/30 03:34:15;;;;;;;4.70;3.63;;;19.70;84.80;;;;;;5088178;28;20307;-72
2023/08/30 03:36:43;;;;;;;3.87;3.50;;;19.70;84.80;;;;;;5075153;28;20231;-72
2023/08/30 03:39:12;;;;;;;3.90;3.60;;;19.70;84.80;;;;;;5078978;28;20205;-72
2023/08/30 03:41:39;;;;;;;4.50;4.10;;;19.70;85.00;;;;;;5078171;28;20341;-72
2023/08/30 03:44:07;;;;;;;4.40;3.13;;;19.70;85.10;;;;;;5088565;28;20193;-72
2023/08/30 03:46:34;;;;;;;3.60;3.30;;;19.60;84.90;;;;;;5085237;28;20220;-71
2023/08/30 03:49:00;;;;;;;3.60;3.23;;;19.70;84.90;;;;;;5075277;28;20221;-72
2023/08/30 03:51:27;;;;;;;3.90;3.60;;;19.60;84.80;;;;;;5089270;28;20542;-71
2023/08/30 03:53:56;;;;;;;4.87;3.50;;;19.60;84.70;;;;;;5087147;28;20203;-72
2023/08/30 03:56:22;;;;;;;4.30;3.60;;;19.60;84.80;;;;;;5079861;28;20227;-72
2023/08/30 03:58:49;;;;;;;4.10;3.70;;;19.60;84.80;;;;;;5083728;28;20196;-72
2023/08/30 04:01:17;;;;;;;4.20;3.27;;;19.60;84.80;;;;;;5087311;28;20204;-71
2023/08/30 04:03:44;;;;;;;4.33;3.50;;;19.60;84.80;;;;;;5089557;28;20224;-72
2023/08/30 04:06:11;;;;;;;3.80;3.50;;;19.50;84.70;;;;;;5079367;28;20219;-72
2023/08/30 04:08:38;;;;;;;4.37;3.10;;;19.60;84.80;;;;;;5080182;28;20229;-72
2023/08/30 04:11:05;;;;;;;4.00;3.60;;;19.50;84.80;;;;;;5078526;28;20610;-71
2023/08/30 04:13:31;;;;;;;4.57;3.30;;;19.50;84.80;;;;;;5079520;28;20197;-72
2023/08/30 04:16:00;;;;;;;3.87;3.57;;;19.50;84.90;;;;;;5084788;28;20213;-72
2023/08/30 04:18:28;;;;;;;4.70;3.80;;;19.50;84.90;;;;;;5094007;28;20324;-72
2023/08/30 04:20:55;;;;;;;4.07;3.67;;;19.50;85.00;;;;;;5082461;28;20282;-71
2023/08/30 04:23:21;;;;;;;4.53;3.70;;;19.60;84.90;;;;;;5076595;28;20210;-72
2023/08/30 04:25:48;;;;;;;3.93;3.63;;;19.50;85.00;;;;;;5075255;28;20224;-72
2023/08/30 04:28:15;;;;;;;5.13;3.80;;;19.50;85.20;;;;;;5037114;28;20229;-72
2023/08/30 04:30:42;;;;;;;3.60;3.30;;;19.50;85.20;;;;;;5084541;28;20193;-72
2023/08/30 04:33:09;;;;;;;4.30;3.90;;;19.60;85.10;;;;;;5084493;28;20224;-72
2023/08/30 04:35:37;;;;;;;4.40;3.90;;;19.60;85.00;;;;;;5083888;28;20720;-72
2023/08/30 04:38:04;;;;;;;5.53;4.00;;;19.60;84.90;;;;;;5073766;28;20213;-72
2023/08/30 04:40:31;;;;;;;4.17;3.60;;;19.60;84.80;;;;;;5074139;28;20256;-72
2023/08/30 04:42:59;;;;;;;4.97;3.90;;;19.60;84.80;;;;;;5078703;28;20650;-72
2023/08/30 04:45:26;;;;;;;3.60;3.30;;;19.50;84.80;;;;;;5083943;28;20291;-72
2023/08/30 04:47:53;;;;;;;4.00;3.60;;;19.50;84.90;;;;;;5090880;28;20235;-72
2023/08/30 04:50:20;;;;;;;4.00;3.60;;;19.60;85.00;;;;;;5079070;28;20215;-71
2023/08/30 04:52:48;;;;;;;4.37;3.97;;;19.60;84.90;;;;;;5080680;28;20661;-71
2023/08/30 04:55:15;;;;;;;4.47;4.07;;;19.70;85.00;;;;;;5077978;28;20231;-71
2023/08/30 04:57:44;;;;;;;4.53;4.13;;;19.60;84.80;;;;;;5070499;28;20197;-71
2023/08/30 05:00:12;;;;;;;4.23;3.90;;;19.60;85.00;;;;;;5077207;28;20198;-71
2023/08/30 05:02:39;;;;;;;5.13;4.07;;;19.50;85.00;;;;;;5068064;28;20238;-71
2023/08/30 05:05:07;;;;;;;6.33;4.23;;;19.50;85.20;;;;;;5078311;28;20212;-72
2023/08/30 05:07:34;;;;;;;6.17;4.10;;;19.50;85.40;;;;;;5071418;28;20327;-72
2023/08/30 05:10:02;;;;;;;4.30;4.00;;;19.50;85.20;;;;;;5071891;28;20209;-72
2023/08/30 05:12:29;;;;;;;5.70;4.03;;;19.50;85.20;;;;;;5079754;28;20201;-72
2023/08/30 05:14:56;;;;;;;4.83;4.10;;;19.40;85.30;;;;;;5077585;28;20227;-72
2023/08/30 05:17:23;;;;;;;4.50;3.73;;;19.50;85.50;;;;;;5091685;28;20180;-72
2023/08/30 05:19:50;;;;;;;4.73;3.43;;;19.50;85.30;;;;;;5091200;28;20206;-72
2023/08/30 05:22:17;;;;;;;4.33;3.80;;;19.60;85.40;;;;;;5074574;28;20238;-72
2023/08/30 05:24:43;;;;;;;4.20;3.90;;;19.60;85.20;;;;;;5071555;28;20240;-71
2023/08/30 05:27:12;;;;;;;4.40;4.00;;;19.60;85.20;;;;;;5072275;28;20771;-72
2023/08/30 05:29:39;;;;;;;3.97;3.67;;;19.60;85.30;;;;;;5088295;28;20483;-72
2023/08/30 05:32:06;;;;;;;4.10;3.80;;;19.60;85.30;;;;;;5091130;28;20228;-72
2023/08/30 05:34:34;;;;;;;4.20;3.83;;;19.60;85.30;;;;;;5071301;28;20220;-72
2023/08/30 05:37:01;;;;;;;4.30;3.50;;;19.60;85.20;;;;;;5084844;28;20320;-72
2023/08/30 05:39:28;;;;;;;4.47;4.03;;;19.60;85.20;;;;;;5089981;28;20223;-71
2023/08/30 05:41:55;;;;;;;4.47;4.00;;;19.60;85.10;;;;;;5089867;28;20707;-71
2023/08/30 05:44:23;;;;;;;4.27;3.90;;;19.70;85.10;;;;;;5080614;28;20236;-71
2023/08/30 05:46:50;;;;;;;4.60;4.03;;;19.60;85.00;;;;;;5087831;28;20644;-70
2023/08/30 05:49:16;;;;;;;4.37;4.00;;;19.60;85.10;;;;;;5083399;28;20220;-71
2023/08/30 05:51:43;;;;;;;4.37;3.90;;;19.70;85.40;;;;;;5086321;28;20250;-71
2023/08/30 05:54:10;;;;;;;4.80;4.00;;;19.70;85.20;;;;;;5091439;28;20210;-70
2023/08/30 05:56:37;;;;;;;3.80;3.50;;;19.70;85.10;;;;;;5083411;28;20197;-70
2023/08/30 05:59:04;;;;;;;3.67;3.40;;;19.70;85.10;;;;;;5092416;28;20219;-69
2023/08/30 06:01:32;;;;;;;4.20;3.80;;;19.80;85.10;;;;;;5077933;28;20232;-71
2023/08/30 06:03:59;;;;;;;4.07;3.67;;;19.80;84.90;;;;;;5083960;28;20196;-71
2023/08/30 06:06:27;;;;;;;4.73;4.10;;;19.80;84.90;;;;;;5091962;28;20577;-71
2023/08/30 06:08:54;;;;;;;5.87;4.20;;;19.80;84.80;;;;;;5077087;28;20315;-71
2023/08/30 06:11:20;;;;;;;3.90;3.60;;;19.80;84.70;;;;;;5090207;28;20632;-71
2023/08/30 06:13:47;;;;;;;4.13;3.70;;;19.80;84.80;;;;;;5086875;28;20219;-72
2023/08/30 06:16:14;;;;;;;4.47;3.50;;;19.80;84.70;;;;;;5081181;28;21381;-72
2023/08/30 06:18:42;;;;;;;4.40;4.07;;;19.80;84.50;;;;;;5092434;28;20641;-72
2023/08/30 06:21:09;;;;;;;4.10;3.73;;;19.90;84.50;;;;;;5090946;28;20202;-71
2023/08/30 06:23:38;;;;;;;4.17;3.77;;;19.90;84.20;;;;;;5090620;28;20238;-71
2023/08/30 06:26:05;;;;;;;3.70;3.40;;;20.00;84.30;;;;;;5079647;28;20248;-71
2023/08/30 06:28:32;;;;;;;4.10;3.70;;;20.00;84.20;;;;;;5084835;28;20224;-71
2023/08/30 06:30:59;;;;;;;4.57;3.63;;;20.00;83.80;;;;;;5088315;28;20545;-72
2023/08/30 06:33:25;;;;;;;4.30;3.90;;;20.00;83.60;;;;;;5083318;28;20288;-72
2023/08/30 06:35:54;;;;;;;4.20;3.70;;;20.00;83.80;;;;;;5083218;28;20704;-70
2023/08/30 06:38:22;;;;;;;6.47;3.80;;;20.00;83.70;;;;;;5083716;28;20204;-71
2023/08/30 06:40:49;;;;;;;5.13;3.63;;;20.00;83.60;;;;;;5090247;28;20592;-71
2023/08/30 06:43:16;;;;;;;4.57;3.50;;;20.10;83.30;;;;;;5084376;28;20337;-70
2023/08/30 06:45:43;;;;;;;4.37;3.90;;;20.10;83.30;;;;;;5070524;28;20211;-70
2023/08/30 06:48:10;;;;;;;4.10;3.70;;;20.10;83.10;;;;;;5071306;28;20263;-70
2023/08/30 06:50:36;;;;;;;4.83;3.30;;;20.10;83.80;;;;;;5083171;28;20200;-70
2023/08/30 06:53:05;;;;;;;4.23;3.47;;;20.10;82.90;;;;;;5070583;28;20301;-70
2023/08/30 06:55:33;;;;;;;4.77;3.47;;;20.20;82.90;;;;;;5088859;28;20578;-70
2023/08/30 06:58:00;;;;;;;3.07;2.80;;;20.20;82.60;;;;;;5091045;28;20212;-70
2023/08/30 07:00:27;;;;;;;3.43;3.13;;;20.30;82.70;;;;;;5087228;28;20228;-70
2023/08/30 07:02:54;;;;;;;5.70;3.30;;;20.30;82.10;;;;;;5086439;28;20192;-70
2023/08/30 07:05:21;;;;;;;3.63;3.07;;;20.40;82.10;;;;;;5070950;28;20297;-70
2023/08/30 07:07:48;;;;;;;4.47;2.97;;;20.40;81.40;;;;;;5070501;28;20235;-70
2023/08/30 07:10:16;;;;;;;3.43;3.13;;;20.40;81.60;;;;;;5082020;28;20228;-70
2023/08/30 07:12:43;;;;;;;3.53;3.20;;;20.40;81.50;;;;;;5071417;28;20209;-71
2023/08/30 07:15:10;;;;;;;3.40;3.10;;;20.50;81.30;;;;;;5091061;28;20203;-70
2023/08/30 07:17:37;;;;;;;3.23;2.93;;;20.40;80.60;;;;;;5090982;28;20204;-70
2023/08/30 07:20:08;;;;;;;5.07;3.40;;;20.40;80.70;;;;;;5081854;28;20710;-70
2023/08/30 07:22:35;;;;;;;3.00;2.70;;;20.50;80.80;;;;;;5090993;28;20249;-70
2023/08/30 07:25:03;;;;;;;3.97;2.73;;;20.50;81.00;;;;;;5070543;28;20299;-70
2023/08/30 07:27:31;;;;;;;3.20;2.90;;;20.60;81.00;;;;;;5084326;28;20274;-70
2023/08/30 07:29:58;;;;;;;3.27;2.87;;;20.60;80.40;;;;;;5085185;28;20201;-70
2023/08/30 07:32:25;;;;;;;3.50;3.00;;;20.80;81.00;;;;;;5073081;28;20232;-70
2023/08/30 07:34:52;;;;;;;3.17;2.93;;;20.70;80.10;;;;;;5089405;28;20201;-71
2023/08/30 07:37:20;;;;;;;2.90;2.70;;;20.80;80.00;;;;;;5090795;28;20243;-70
2023/08/30 07:39:47;;;;;;;3.33;2.97;;;20.70;79.90;;;;;;5090638;28;20313;-70
2023/08/30 07:42:14;;;;;;;4.10;3.00;;;20.70;80.10;;;;;;5087590;28;20215;-70
2023/08/30 07:44:43;;;;;;;3.17;2.87;;;20.70;79.70;;;;;;5074670;28;20209;-70
2023/08/30 07:47:10;;;;;;;5.00;3.00;;;20.80;80.10;;;;;;5074452;28;20185;-70
2023/08/30 07:49:37;;;;;;;3.27;2.97;;;20.90;79.70;;;;;;5073992;28;20319;-70
2023/08/30 07:52:04;;;;;;;3.33;3.03;;;21.00;79.40;;;;;;5082430;28;20221;-71
2023/08/30 07:54:31;;;;;;;3.53;3.23;;;21.00;79.10;;;;;;5090098;28;20553;-70
2023/08/30 07:56:58;;;;;;;3.57;2.90;;;20.90;78.90;;;;;;5087623;28;20204;-70
2023/08/30 07:59:25;;;;;;;3.90;2.73;;;20.90;78.90;;;;;;5094622;28;20298;-71
2023/08/30 08:01:53;;;;;;;3.30;2.87;;;20.90;79.00;;;;;;5086164;28;20215;-70
2023/08/30 08:04:20;;;;;;;4.53;3.23;;;21.00;79.00;;;;;;5094940;28;20540;-70
2023/08/30 08:06:47;;;;;;;3.23;2.73;;;21.20;78.90;;;;;;5095848;28;20212;-70
2023/08/30 08:09:15;;;;;;;3.10;2.80;;;21.30;78.90;;;;;;5093622;28;20229;-71
2023/08/30 08:11:43;;;;;;;3.50;3.13;;;21.40;79.40;;;;;;5092636;28;20315;-71
2023/08/30 08:14:10;;;;;;;3.67;2.80;;;21.40;78.20;;;;;;5093666;28;20200;-71
2023/08/30 08:16:37;;;;;;;4.87;2.97;;;21.40;78.20;;;;;;5094235;28;20248;-71
2023/08/30 08:19:06;;;;;;;3.17;2.67;;;21.50;78.30;;;;;;5092422;28;20200;-70
2023/08/30 08:21:32;;;;;;;3.23;2.93;;;21.40;78.30;;;;;;5094409;28;20204;-71
2023/08/30 08:23:59;;;;;;;4.00;2.93;;;21.50;77.90;;;;;;5092614;28;20232;-70
2023/08/30 08:26:26;;;;;;;4.37;3.40;;;21.50;78.50;;;;;;5078393;28;20433;-71
2023/08/30 08:28:54;;;;;;;3.70;3.00;;;21.50;78.00;;;;;;5073879;28;20221;-70
2023/08/30 08:31:21;;;;;;;4.47;3.30;;;21.70;77.30;;;;;;5073379;28;20232;-70
2023/08/30 08:33:51;;;;;;;3.80;3.50;;;21.60;76.90;;;;;;5073459;28;20237;-71
2023/08/30 08:36:19;;;;;;;3.73;3.43;;;21.60;77.20;;;;;;5092796;28;20291;-70
2023/08/30 08:38:46;;;;;;;3.80;3.50;;;21.70;77.60;;;;;;5091696;28;20211;-70
2023/08/30 08:41:16;;;;;;;3.00;2.80;;;21.70;76.30;;;;;;5090899;28;20556;-71
2023/08/30 08:43:44;;;;;;;3.40;3.00;;;21.80;78.00;;;;;;5073262;28;20225;-71
2023/08/30 08:46:12;;;;;;;3.20;2.90;;;22.00;77.00;;;;;;5073263;28;20205;-70
2023/08/30 08:48:42;;;;;;;3.40;3.10;;;22.10;76.80;;;;;;5088536;28;20241;-70
2023/08/30 08:51:09;;;;;;;3.63;2.90;;;22.30;76.60;;;;;;5093121;28;20235;-71
2023/08/30 08:53:38;;;;;;;2.93;2.73;;;22.40;77.00;;;;;;5092514;28;20201;-70
2023/08/30 08:56:07;;;;;;;3.23;2.90;;;22.50;75.50;;;;;;5053131;28;20239;-70
2023/08/30 08:58:38;;;;;;;2.93;2.73;;;22.60;74.70;;;;;;5053205;28;20221;-71
2023/08/30 09:01:06;;;;;;;3.10;2.77;;;22.70;75.00;;;;;;5090055;28;20257;-70
2023/08/30 09:03:34;;;;;;;4.20;2.70;;;22.80;74.50;;;;;;5091034;28;20207;-71
2023/08/30 09:06:03;;;;;;;3.33;2.80;;;22.70;73.80;;;;;;5092859;28;20208;-71
2023/08/30 09:08:30;;;;;;;3.30;2.60;;;22.50;74.20;;;;;;5081353;28;20236;-71
2023/08/30 09:10:59;;;;;;;3.10;2.80;;;22.60;74.10;;;;;;5072928;28;20201;-71
2023/08/30 09:13:26;;;;;;;2.90;2.60;;;22.60;74.40;;;;;;5074385;28;20287;-71
2023/08/30 09:15:52;;;;;;;2.80;2.60;;;22.70;74.40;;;;;;5073067;28;20229;-71
2023/08/30 09:18:20;;;;;;;3.00;2.70;;;22.80;74.80;;;;;;5082528;28;20568;-71
2023/08/30 09:20:47;;;;;;;2.80;2.60;;;22.90;74.20;;;;;;5081810;28;20229;-70
2023/08/30 09:23:18;;;;;;;3.10;2.90;;;22.80;73.20;;;;;;5074752;28;20288;-70
2023/08/30 09:25:45;;;;;;;3.07;2.53;;;22.80;72.10;;;;;;5077649;28;20213;-71
2023/08/30 09:28:15;;;;;;;3.30;2.57;;;22.80;72.30;;;;;;5073801;28;20303;-70
2023/08/30 09:30:41;;;;;;;2.93;2.53;;;22.70;71.80;;;;;;5080873;28;20443;-71
2023/08/30 09:33:09;;;;;;;2.83;2.57;;;22.90;73.20;;;;;;5084419;28;20219;-71
2023/08/30 09:35:44;;;;;;;2.60;2.40;;;23.00;71.40;;;;;;5072749;28;20233;-71
2023/08/30 09:38:18;;;;;;;2.43;2.17;;;23.00;71.40;;;;;;5075820;28;20269;-70
2023/08/30 09:40:45;;;;;;;2.60;2.40;;;23.10;72.10;;;;;;5083434;28;20189;-70
2023/08/30 09:43:12;;;;;;;3.13;2.50;;;23.20;72.10;;;;;;5075586;28;20210;-72
2023/08/30 09:45:41;;;;;;;3.00;2.70;;;23.30;72.30;;;;;;5070171;28;20657;-71
2023/08/30 09:48:08;;;;;;;2.50;2.30;;;23.40;71.20;;;;;;5071728;28;20562;-71
2023/08/30 09:50:36;;;;;;;2.53;2.33;;;23.50;71.30;;;;;;5071912;28;20203;-71
2023/08/30 09:53:09;;;;;;;3.60;2.80;;;23.60;71.30;;;;;;5051967;28;20315;-71
2023/08/30 09:55:36;;;;;;;2.90;2.57;;;23.70;71.40;;;;;;5070726;28;20197;-70
2023/08/30 09:58:04;;;;;;;3.03;2.63;;;23.70;71.50;;;;;;5071621;28;20748;-70
2023/08/30 10:00:31;;;;;;;2.67;2.47;;;23.80;70.80;;;;;;5071810;28;20704;-70
2023/08/30 10:03:01;;;;;;;2.87;2.47;;;23.60;70.60;;;;;;5070978;28;20200;-70
2023/08/30 10:05:28;;;;;;;2.73;2.50;;;23.60;70.80;;;;;;5082699;28;20271;-70
2023/08/30 10:07:55;;;;;;;2.70;2.50;;;23.70;70.40;;;;;;5086089;28;20228;-71
2023/08/30 10:10:24;;;;;;;2.60;2.40;;;23.60;70.70;;;;;;5056875;28;20220;-71
2023/08/30 10:12:52;;;;;;;2.17;2.07;;;23.80;71.20;;;;;;5072500;28;20324;-71
2023/08/30 10:15:22;;;;;;;3.07;2.87;;;23.80;71.10;;;;;;5074877;28;20580;-71
2023/08/30 10:17:53;;;;;;;2.70;2.50;;;23.80;70.30;;;;;;5071460;28;20201;-71
2023/08/30 10:20:22;;;;;;;2.53;2.33;;;23.90;69.40;;;;;;5071621;28;20637;-70
2023/08/30 10:22:52;;;;;;;3.53;2.70;;;23.90;70.20;;;;;;5063042;28;20213;-71
2023/08/30 10:25:23;;;;;;;6.33;2.80;;;23.80;69.40;;;;;;5071522;28;20235;-71
2023/08/30 10:27:51;;;;;;;2.57;2.37;;;23.80;68.70;;;;;;5075116;28;20192;-71
2023/08/30 10:30:21;;;;;;;2.80;2.40;;;23.70;69.80;;;;;;5071354;28;20602;-71
2023/08/30 10:32:48;;;;;;;2.60;2.40;;;23.50;68.80;;;;;;5070810;28;20685;-71
2023/08/30 10:35:16;;;;;;;2.73;2.47;;;23.70;69.60;;;;;;5074720;28;20209;-71
2023/08/30 10:37:55;;;;;;;2.30;2.10;;;23.70;69.40;;;;;;5073316;28;20243;-71
2023/08/30 10:40:22;;;;;;;2.70;2.50;;;23.70;70.00;;;;;;5071878;28;20194;-71
2023/08/30 10:43:00;;;;;;;2.80;2.60;;;23.70;69.70;;;;;;5070971;28;20235;-72
2023/08/30 10:45:27;;;;;;;3.17;2.93;;;23.60;69.10;;;;;;5071720;28;20188;-71
2023/08/30 10:47:56;;;;;;;3.10;2.80;;;23.80;69.20;;;;;;5071457;28;20732;-72
2023/08/30 10:50:30;;;;;;;2.80;2.40;;;23.80;69.00;;;;;;5080500;28;20342;-71
2023/08/30 10:52:58;;;;;;;3.93;2.10;;;23.90;69.30;;;;;;5072023;28;20197;-71
2023/08/30 10:55:25;;;;;;;2.67;2.47;;;23.90;69.40;;;;;;5071099;28;20629;-71
2023/08/30 10:58:00;;;;;;;2.60;2.40;;;24.20;69.90;;;;;;5071876;28;20208;-71
2023/08/30 11:00:29;;;;;;;3.10;2.80;;;24.30;67.50;;;;;;5071464;28;20201;-72
2023/08/30 11:02:56;;;;;;;2.50;2.30;;;24.30;67.20;;;;;;5072259;28;20267;-71
2023/08/30 11:05:24;;;;;;;4.60;2.60;;;24.40;68.10;;;;;;5080453;28;20205;-71
2023/08/30 11:07:52;;;;;;;2.87;2.30;;;24.50;67.00;;;;;;5074632;28;20203;-72
2023/08/30 11:10:21;;;;;;;2.93;2.50;;;24.60;66.60;;;;;;5071024;28;20248;-72
2023/08/30 11:12:50;;;;;;;2.60;2.40;;;24.80;66.00;;;;;;5072213;28;20216;-71
2023/08/30 11:15:17;;;;;;;2.83;2.40;;;24.80;66.20;;;;;;5074895;28;20228;-71
2023/08/30 11:17:44;;;;;;;3.80;2.70;;;24.80;65.80;;;;;;5082153;28;20243;-71
2023/08/30 11:20:13;;;;;;;2.40;2.20;;;24.80;63.70;;;;;;5075516;28;20201;-71
2023/08/30 11:22:43;;;;;;;3.37;2.20;;;24.70;64.60;;;;;;5081936;28;20565;-71
2023/08/30 11:25:10;;;;;;;2.67;2.47;;;24.90;65.20;;;;;;5082623;28;20227;-70
2023/08/30 11:27:39;;;;;;;2.50;2.30;;;25.00;65.20;;;;;;5074989;28;20201;-71
2023/08/30 11:30:08;;;;;;;2.90;2.30;;;25.10;64.30;;;;;;5076072;28;20205;-71
2023/08/30 11:32:35;;;;;;;2.47;2.27;;;25.20;64.70;;;;;;5085291;28;20224;-71
2023/08/30 11:35:02;;;;;;;3.27;2.50;;;25.40;64.90;;;;;;5087965;28;20255;-72
2023/08/30 11:37:29;;;;;;;2.90;2.20;;;25.60;63.50;;;;;;5058281;28;20318;-71
2023/08/30 11:39:56;;;;;;;3.40;2.07;;;25.80;63.00;;;;;;5086470;28;20193;-71
2023/08/30 11:42:23;;;;;;;2.20;2.00;;;25.80;62.10;;;;;;5094455;28;20235;-71
2023/08/30 11:44:52;;;;;;;2.30;2.10;;;25.80;61.70;;;;;;5082810;28;20208;-71
2023/08/30 11:47:23;;;;;;;2.00;1.90;;;25.80;60.00;;;;;;5075584;28;20206;-73
2023/08/30 11:49:50;;;;;;;2.50;2.27;;;25.70;61.20;;;;;;5091960;28;20608;-71
2023/08/30 11:52:19;;;;;;;3.93;2.20;;;25.70;60.70;;;;;;5087039;28;20204;-71
2023/08/30 11:54:48;;;;;;;2.67;2.13;;;25.80;61.30;;;;;;5085287;28;20233;-71
2023/08/30 11:57:14;;;;;;;2.50;2.20;;;26.00;60.70;;;;;;5078014;28;20190;-72
2023/08/30 11:59:41;;;;;;;2.40;2.20;;;26.10;60.10;;;;;;5084503;28;20210;-71
2023/08/30 12:02:10;;;;;;;2.33;2.10;;;26.20;59.80;;;;;;5074126;28;20231;-71
2023/08/30 12:04:41;;;;;;;3.37;1.90;;;26.30;59.60;;;;;;5075686;28;20239;-71
2023/08/30 12:07:08;;;;;;;3.03;2.00;;;26.10;58.60;;;;;;5073699;28;20674;-71
2023/08/30 12:09:35;;;;;;;2.23;1.87;;;26.10;59.40;;;;;;5078689;28;20247;-71
2023/08/30 12:12:10;;;;;;;2.03;1.90;;;26.10;58.10;;;;;;5074216;28;20212;-71
2023/08/30 12:14:37;;;;;;;2.20;2.10;;;25.90;57.90;;;;;;5073734;28;20228;-71
2023/08/30 12:17:04;;;;;;;3.10;2.07;;;25.90;58.40;;;;;;5077698;28;20275;-71
2023/08/30 12:19:32;;;;;;;2.37;2.10;;;26.00;58.80;;;;;;5093856;28;20203;-71
2023/08/30 12:22:05;;;;;;;2.20;2.00;;;26.20;59.20;;;;;;5094527;28;20241;-72
2023/08/30 12:24:42;;;;;;;2.20;2.00;;;26.30;57.40;;;;;;5094634;28;20228;-72
2023/08/30 12:27:09;;;;;;;3.27;2.30;;;26.30;57.00;;;;;;5089451;28;20193;-71
2023/08/30 12:29:36;;;;;;;4.20;2.30;;;26.30;57.00;;;;;;5089966;28;20210;-71
2023/08/30 12:32:03;;;;;;;2.27;1.90;;;26.00;57.10;;;;;;5094090;28;20216;-72
2023/08/30 12:34:29;;;;;;;2.13;1.93;;;26.10;57.90;;;;;;5093340;28;20236;-71
2023/08/30 12:36:58;;;;;;;2.73;2.00;;;26.20;58.10;;;;;;5093728;28;20221;-72
2023/08/30 12:39:25;;;;;;;2.10;1.90;;;26.40;57.60;;;;;;5091773;28;20303;-71
2023/08/30 12:41:52;;;;;;;2.17;1.97;;;26.50;58.00;;;;;;5093929;28;20208;-71
2023/08/30 12:44:19;;;;;;;4.07;2.07;;;26.60;56.60;;;;;;5079101;28;20201;-71
2023/08/30 12:46:45;;;;;;;2.40;2.03;;;26.80;57.00;;;;;;5082813;28;20225;-71
2023/08/30 12:49:12;;;;;;;2.63;2.10;;;26.90;55.10;;;;;;5091156;28;20186;-71
2023/08/30 12:51:40;;;;;;;3.27;2.17;;;26.90;56.10;;;;;;5080323;28;20309;-71